createdAt,value
2019-04-26T00:02:42.424Z,8.94
2019-04-26T00:05:10.218Z,8.94
2019-04-26T00:07:36.563Z,8.91
2019-04-26T00:10:03.626Z,8.96
2019-04-26T00:12:30.645Z,8.98
2019-04-26T00:15:03.401Z,9.02
2019-04-26T00:17:45.350Z,8.98
2019-04-26T00:20:12.977Z,8.89
2019-04-26T00:22:39.563Z,8.83
2019-04-26T00:25:06.587Z,8.75
2019-04-26T00:27:33.644Z,8.79
2019-04-26T00:30:00.679Z,8.76
2019-04-26T00:32:28.168Z,8.76
2019-04-26T00:34:55.619Z,8.80
2019-04-26T00:37:22.628Z,8.91
2019-04-26T00:39:49.669Z,8.96
2019-04-26T00:42:16.691Z,8.98
2019-04-26T00:44:43.686Z,8.96
2019-04-26T00:47:10.715Z,9.06
2019-04-26T00:49:43.947Z,9.20
2019-04-26T00:52:05.114Z,9.28
2019-04-26T00:54:32.175Z,9.35
2019-04-26T00:56:59.157Z,9.35
2019-04-26T00:59:26.159Z,9.35
2019-04-26T01:01:53.163Z,9.33
2019-04-26T01:04:20.931Z,9.32
2019-04-26T01:06:47.187Z,9.36
2019-04-26T01:09:15.924Z,9.22
2019-04-26T01:11:41.277Z,9.17
2019-04-26T01:14:08.324Z,9.11
2019-04-26T01:16:35.323Z,8.99
2019-04-26T01:19:02.339Z,8.90
2019-04-26T01:21:29.795Z,8.99
2019-04-26T01:23:56.783Z,9.15
2019-04-26T01:26:23.799Z,9.27
2019-04-26T01:28:52.617Z,9.27
2019-04-26T01:31:19.967Z,9.08
2019-04-26T01:33:46.693Z,8.97
2019-04-26T01:36:13.819Z,9.08
2019-04-26T01:38:40.736Z,9.08
2019-04-26T01:41:08.336Z,9.18
2019-04-26T01:43:45.271Z,9.34
2019-04-26T01:46:12.958Z,9.28
2019-04-26T01:48:43.553Z,9.23
2019-04-26T01:51:10.646Z,9.26
2019-04-26T01:53:37.794Z,9.23
2019-04-26T01:56:04.925Z,9.09
2019-04-26T01:58:32.012Z,9.13
2019-04-26T02:03:50.911Z,9.50
2019-04-26T02:06:25.433Z,9.43
2019-04-26T02:08:45.025Z,9.42
2019-04-26T02:11:12.047Z,9.34
2019-04-26T02:13:39.035Z,9.29
2019-04-26T02:16:06.074Z,9.21
2019-04-26T02:18:33.559Z,9.14
2019-04-26T02:21:01.083Z,9.15
2019-04-26T02:23:39.877Z,9.05
2019-04-26T02:26:12.429Z,9.02
2019-04-26T02:28:39.646Z,8.87
2019-04-26T02:31:06.754Z,8.78
2019-04-26T02:33:35.345Z,8.72
2019-04-26T02:36:00.997Z,8.65
2019-04-26T02:38:29.321Z,8.57
2019-04-26T02:40:55.062Z,8.36
2019-04-26T02:43:22.380Z,8.32
2019-04-26T02:45:52.059Z,8.33
2019-04-26T02:48:20.817Z,8.35
2019-04-26T02:50:57.752Z,8.31
2019-04-26T02:53:29.669Z,8.28
2019-04-26T02:56:11.791Z,8.14
2019-04-26T03:01:38.748Z,8.53
2019-04-26T03:04:03.934Z,8.55
2019-04-26T03:06:33.913Z,8.45
2019-04-26T03:08:58.054Z,8.34
2019-04-26T03:11:25.056Z,8.36
2019-04-26T03:13:55.288Z,8.36
2019-04-26T03:16:22.283Z,8.38
2019-04-26T03:18:54.084Z,8.28
2019-04-26T03:23:58.537Z,8.46
2019-04-26T03:26:25.519Z,8.42
2019-04-26T03:28:52.550Z,8.35
2019-04-26T03:31:52.035Z,8.34
2019-04-26T03:34:10.431Z,8.33
2019-04-26T03:37:00.053Z,8.27
2019-04-26T03:39:27.942Z,8.28
2019-04-26T03:42:02.332Z,8.40
2019-04-26T03:46:58.826Z,8.50
2019-04-26T03:49:29.743Z,8.64
2019-04-26T03:51:58.711Z,8.78
2019-04-26T03:54:25.755Z,8.77
2019-04-26T03:56:56.627Z,8.62
2019-04-26T03:59:29.139Z,8.60
2019-04-26T04:02:07.864Z,8.53
2019-04-26T04:04:49.792Z,8.35
2019-04-26T04:07:16.814Z,8.29
2019-04-26T04:09:46.898Z,8.33
2019-04-26T04:12:23.828Z,8.43
2019-04-26T04:14:51.595Z,8.47
2019-04-26T04:17:21.291Z,8.38
2019-04-26T04:19:54.659Z,8.37
2019-04-26T04:22:22.261Z,8.59
2019-04-26T04:25:02.161Z,8.64
2019-04-26T04:27:29.186Z,8.69
2019-04-26T04:29:56.197Z,8.97
2019-04-26T04:32:28.968Z,9.06
2019-04-26T04:34:55.950Z,9.15
2019-04-26T04:37:22.960Z,9.04
2019-04-26T04:39:50.761Z,9.07
2019-04-26T04:42:20.734Z,9.23
2019-04-26T04:44:59.405Z,9.35
2019-04-26T04:47:30.934Z,9.48
2019-04-26T04:50:06.758Z,9.48
2019-04-26T04:52:50.142Z,9.48
2019-04-26T04:55:19.019Z,9.45
2019-04-26T04:57:50.422Z,9.34
2019-04-26T05:03:38.811Z,9.63
2019-04-26T05:06:14.328Z,9.68
2019-04-26T05:08:53.080Z,9.78
2019-04-26T05:11:19.219Z,9.75
2019-04-26T05:16:59.435Z,9.91
2019-04-26T05:22:39.408Z,9.89
2019-04-26T05:25:18.639Z,9.66
2019-04-26T05:27:55.094Z,9.54
2019-04-26T05:30:43.182Z,9.46
2019-04-26T05:33:12.345Z,9.41
2019-04-26T05:38:47.811Z,9.71
2019-04-26T05:44:12.950Z,9.79
2019-04-26T05:46:59.073Z,9.70
2019-04-26T05:52:39.343Z,9.75
2019-04-26T05:55:22.827Z,9.73
2019-04-26T05:57:52.563Z,9.75
2019-04-26T06:00:32.630Z,9.79
2019-04-26T06:03:11.585Z,9.70
2019-04-26T06:05:40.798Z,9.68
2019-04-26T06:08:31.260Z,9.77
2019-04-26T06:11:06.319Z,9.83
2019-04-26T06:13:55.918Z,9.83
2019-04-26T06:16:36.690Z,9.93
2019-04-26T06:25:32.269Z,10.57
2019-04-26T06:28:02.793Z,10.54
2019-04-26T06:30:31.012Z,10.60
2019-04-26T06:33:04.760Z,10.50
2019-04-26T06:35:29.800Z,10.48
2019-04-26T06:41:01.035Z,10.63
2019-04-26T06:43:28.968Z,10.61
2019-04-26T06:46:04.712Z,10.68
2019-04-26T06:48:39.016Z,10.79
2019-04-26T06:51:24.675Z,10.92
2019-04-26T06:53:58.593Z,11.02
2019-04-26T06:59:43.095Z,11.35
2019-04-26T07:02:13.679Z,11.17
2019-04-26T07:05:15.318Z,11.04
2019-04-26T07:07:44.674Z,11.11
2019-04-26T07:10:27.967Z,11.13
2019-04-26T07:13:07.870Z,11.04
2019-04-26T07:15:41.814Z,11.07
2019-04-26T07:18:12.850Z,11.19
2019-04-26T07:20:42.486Z,11.36
2019-04-26T07:26:25.616Z,11.84
2019-04-26T07:29:04.691Z,11.82
2019-04-26T07:31:49.106Z,11.59
2019-04-26T07:34:23.454Z,11.58
2019-04-26T07:40:09.394Z,12.07
2019-04-26T07:42:47.332Z,12.14
2019-04-26T07:45:24.254Z,12.14
2019-04-26T07:51:13.795Z,12.43
2019-04-26T07:53:47.937Z,12.20
2019-04-26T07:56:21.083Z,12.10
2019-04-26T07:59:02.767Z,12.14
2019-04-26T08:01:29.332Z,12.23
2019-04-26T08:04:00.500Z,12.23
2019-04-26T08:06:28.982Z,12.41
2019-04-26T08:09:07.438Z,12.39
2019-04-26T08:11:36.644Z,12.19
2019-04-26T08:14:06.236Z,12.19
2019-04-26T08:16:33.618Z,12.19
2019-04-26T08:19:01.063Z,12.10
2019-04-26T08:21:31.747Z,12.26
2019-04-26T08:23:57.741Z,12.33
2019-04-26T08:26:26.244Z,12.46
2019-04-26T08:28:51.670Z,12.43
2019-04-26T08:31:21.216Z,12.46
2019-04-26T08:33:48.688Z,12.62
2019-04-26T08:36:14.720Z,12.82
2019-04-26T08:38:41.928Z,12.84
2019-04-26T08:41:09.855Z,13.08
2019-04-26T08:43:37.383Z,13.21
2019-04-26T08:46:12.822Z,13.04
2019-04-26T08:48:40.502Z,13.01
2019-04-26T08:51:15.377Z,12.96
2019-04-26T08:53:39.959Z,13.00
2019-04-26T08:56:07.411Z,13.19
2019-04-26T08:58:34.903Z,13.35
2019-04-26T09:03:54.618Z,13.92
2019-04-26T09:06:27.660Z,14.05
2019-04-26T09:08:55.140Z,13.92
2019-04-26T09:11:26.407Z,13.88
2019-04-26T09:13:50.364Z,13.75
2019-04-26T09:16:17.974Z,13.88
2019-04-26T09:18:52.512Z,13.80
2019-04-26T09:21:16.832Z,13.82
2019-04-26T09:23:50.843Z,13.73
2019-04-26T09:26:32.640Z,13.78
2019-04-26T09:29:05.590Z,13.88
2019-04-26T09:34:33.173Z,13.73
2019-04-26T09:37:00.884Z,13.66
2019-04-26T09:39:28.392Z,13.69
2019-04-26T09:42:01.200Z,13.70
2019-04-26T09:44:31.402Z,13.85
2019-04-26T09:47:13.596Z,14.02
2019-04-26T09:49:42.322Z,13.99
2019-04-26T09:52:09.973Z,14.12
2019-04-26T09:54:37.530Z,14.15
2019-04-26T09:57:04.988Z,14.25
2019-04-26T09:59:32.489Z,14.45
2019-04-26T10:02:00.311Z,14.41
2019-04-26T10:04:27.450Z,14.40
2019-04-26T10:06:54.921Z,14.56
2019-04-26T10:09:22.794Z,14.82
2019-04-26T10:11:50.793Z,15.03
2019-04-26T10:14:19.182Z,15.18
2019-04-26T10:16:53.205Z,15.31
2019-04-26T10:19:20.831Z,15.37
2019-04-26T10:21:48.298Z,15.65
2019-04-26T10:24:15.765Z,15.86
2019-04-26T10:26:43.207Z,16.12
2019-04-26T10:29:10.735Z,16.41
2019-04-26T10:31:38.207Z,16.57
2019-04-26T10:34:07.740Z,16.47
2019-04-26T10:36:33.141Z,16.17
2019-04-26T10:39:00.623Z,16.00
2019-04-26T10:41:28.119Z,16.57
2019-04-26T10:43:55.615Z,17.02
2019-04-26T10:46:24.566Z,16.96
2019-04-26T10:48:51.312Z,17.04
2019-04-26T10:51:18.254Z,16.96
2019-04-26T10:53:50.486Z,16.92
2019-04-26T10:56:24.205Z,17.04
2019-04-26T10:58:51.644Z,17.11
2019-04-26T11:01:19.074Z,17.34
2019-04-26T11:03:46.532Z,17.69
2019-04-26T11:06:14.061Z,17.93
2019-04-26T11:08:41.139Z,18.29
2019-04-26T11:11:08.188Z,18.42
2019-04-26T11:13:35.223Z,18.48
2019-04-26T11:16:06.487Z,18.87
2019-04-26T11:18:29.708Z,19.08
2019-04-26T11:20:57.150Z,18.76
2019-04-26T11:23:24.599Z,18.94
2019-04-26T11:25:52.067Z,19.35
2019-04-26T11:28:21.382Z,19.57
2019-04-26T11:30:47.999Z,19.32
2019-04-26T11:33:14.553Z,19.42
2019-04-26T11:35:42.124Z,19.71
2019-04-26T11:38:09.607Z,19.91
2019-04-26T11:40:37.077Z,19.90
2019-04-26T11:43:04.585Z,19.76
2019-04-26T11:45:32.049Z,19.67
2019-04-26T11:47:59.553Z,19.25
2019-04-26T11:50:27.012Z,18.51
2019-04-26T11:52:54.520Z,18.40
2019-04-26T11:55:25.288Z,18.19
2019-04-26T11:57:49.473Z,17.80
2019-04-26T12:00:28.835Z,17.34
2019-04-26T12:02:56.289Z,16.74
2019-04-26T12:05:25.546Z,16.66
2019-04-26T12:07:55.572Z,16.53
2019-04-26T12:10:23.052Z,16.36
2019-04-26T12:12:51.782Z,16.18
2019-04-26T12:15:29.738Z,15.98
2019-04-26T12:17:57.912Z,15.73
2019-04-26T12:20:13.093Z,15.50
2019-04-26T12:22:43.257Z,15.34
2019-04-26T12:25:08.350Z,15.20
2019-04-26T12:27:35.657Z,14.98
2019-04-26T12:30:03.141Z,14.73
2019-04-26T12:32:30.635Z,14.33
2019-04-26T12:34:58.264Z,13.99
2019-04-26T12:37:25.835Z,13.54
2019-04-26T12:39:53.315Z,12.99
2019-04-26T12:42:20.839Z,12.75
2019-04-26T12:44:51.301Z,12.18
2019-04-26T12:47:21.253Z,11.87
2019-04-26T12:49:48.810Z,11.74
2019-04-26T12:52:17.396Z,11.86
2019-04-26T12:54:44.475Z,12.07
2019-04-26T12:57:10.908Z,12.19
2019-04-26T12:59:44.388Z,12.52
2019-04-26T13:02:06.231Z,12.87
2019-04-26T13:04:36.310Z,13.10
2019-04-26T13:07:02.321Z,12.94
2019-04-26T13:09:29.255Z,12.94
2019-04-26T13:12:02.298Z,13.31
2019-04-26T13:17:35.525Z,15.81
2019-04-26T13:19:58.904Z,16.70
2019-04-26T13:22:26.375Z,17.38
2019-04-26T13:24:53.839Z,17.77
2019-04-26T13:27:21.303Z,17.98
2019-04-26T13:30:01.378Z,18.08
2019-04-26T13:32:16.304Z,18.10
2019-04-26T13:34:43.751Z,17.99
2019-04-26T13:37:11.190Z,17.89
2019-04-26T13:39:38.630Z,17.60
2019-04-26T13:42:09.308Z,17.81
2019-04-26T13:44:39.516Z,18.05
2019-04-26T13:47:21.590Z,18.46
2019-04-26T13:49:54.659Z,18.47
2019-04-26T13:52:22.295Z,18.30
2019-04-26T13:54:51.175Z,18.38
2019-04-26T13:57:17.297Z,18.87
2019-04-26T13:59:44.735Z,19.35
2019-04-26T14:02:12.281Z,19.30
2019-04-26T14:04:41.118Z,19.54
2019-04-26T14:07:07.135Z,19.22
2019-04-26T14:09:34.586Z,19.38
2019-04-26T14:12:10.095Z,19.54
2019-04-26T14:14:30.195Z,19.85
2019-04-26T14:16:57.175Z,20.21
2019-04-26T14:19:24.644Z,19.71
2019-04-26T14:21:52.115Z,19.47
2019-04-26T14:24:32.261Z,19.44
2019-04-26T14:27:00.143Z,19.36
2019-04-26T14:29:28.409Z,19.80
2019-04-26T14:31:55.067Z,20.25
2019-04-26T14:34:22.523Z,20.55
2019-04-26T14:36:50.008Z,20.77
2019-04-26T14:39:19.632Z,20.83
2019-04-26T14:41:45.039Z,20.76
2019-04-26T14:44:15.749Z,20.47
2019-04-26T14:46:48.729Z,20.63
2019-04-26T14:49:07.451Z,20.84
2019-04-26T14:51:34.935Z,20.88
2019-04-26T14:54:02.398Z,20.69
2019-04-26T14:56:30.885Z,20.31
2019-04-26T14:58:57.325Z,19.95
2019-04-26T15:01:32.248Z,19.20
2019-04-26T15:04:03.616Z,18.61
2019-04-26T15:06:32.207Z,17.82
2019-04-26T15:08:58.569Z,17.31
2019-04-26T15:11:26.032Z,17.13
2019-04-26T15:13:53.477Z,17.03
2019-04-26T15:16:22.736Z,16.93
2019-04-26T15:18:48.562Z,16.84
2019-04-26T15:21:16.045Z,16.71
2019-04-26T15:23:43.576Z,16.51
2019-04-26T15:26:12.834Z,16.33
2019-04-26T15:28:38.629Z,16.11
2019-04-26T15:31:06.156Z,15.98
2019-04-26T15:33:35.886Z,15.95
2019-04-26T15:36:02.241Z,16.03
2019-04-26T15:38:34.843Z,16.16
2019-04-26T15:40:58.079Z,16.19
2019-04-26T15:43:38.447Z,16.15
2019-04-26T15:49:17.778Z,16.03
2019-04-26T15:51:45.285Z,15.78
2019-04-26T15:54:12.751Z,15.50
2019-04-26T15:56:40.245Z,15.37
2019-04-26T15:59:07.705Z,15.33
2019-04-26T16:01:35.157Z,15.37
2019-04-26T16:04:06.331Z,15.65
2019-04-26T16:06:30.204Z,15.96
2019-04-26T16:08:57.663Z,16.54
2019-04-26T16:11:25.231Z,17.23
2019-04-26T16:13:58.597Z,17.84
2019-04-26T16:16:29.177Z,18.07
2019-04-26T16:18:57.041Z,17.67
2019-04-26T16:21:22.050Z,17.23
2019-04-26T16:23:51.987Z,17.27
2019-04-26T16:26:16.105Z,17.54
2019-04-26T16:28:46.050Z,17.46
2019-04-26T16:31:30.165Z,17.55
2019-04-26T16:33:59.439Z,17.60
2019-04-26T16:36:26.994Z,17.54
2019-04-26T16:38:57.846Z,17.13
2019-04-26T16:41:27.329Z,16.65
2019-04-26T16:43:53.041Z,16.12
2019-04-26T16:46:20.630Z,15.79
2019-04-26T16:48:44.669Z,15.69
2019-04-26T16:51:14.465Z,15.67
2019-04-26T16:53:58.805Z,15.58
2019-04-26T16:56:07.168Z,15.41
2019-04-26T16:58:38.314Z,15.31
2019-04-26T17:01:04.551Z,15.26
2019-04-26T17:03:29.703Z,15.17
2019-04-26T17:06:05.217Z,15.01
2019-04-26T17:08:24.733Z,14.91
2019-04-26T17:10:56.334Z,14.94
2019-04-26T17:13:23.478Z,15.01
2019-04-26T17:15:47.303Z,14.90
2019-04-26T17:18:14.776Z,14.97
2019-04-26T17:20:44.902Z,15.10
2019-04-26T17:23:15.319Z,15.19
2019-04-26T17:25:48.358Z,15.44
2019-04-26T17:28:17.947Z,15.56
2019-04-26T17:30:44.658Z,15.75
2019-04-26T17:33:10.921Z,15.75
2019-04-26T17:35:40.910Z,15.68
2019-04-26T17:38:05.958Z,15.68
2019-04-26T17:40:36.690Z,15.68
2019-04-26T17:43:01.124Z,15.63
2019-04-26T17:45:30.539Z,15.54
2019-04-26T17:47:56.207Z,15.52
2019-04-26T17:50:23.760Z,15.28
2019-04-26T17:52:51.590Z,15.01
2019-04-26T17:55:18.768Z,14.84
2019-04-26T17:57:49.940Z,14.77
2019-04-26T18:00:15.622Z,14.71
2019-04-26T18:02:47.538Z,14.63
2019-04-26T18:05:08.940Z,14.63
2019-04-26T18:07:43.272Z,14.55
2019-04-26T18:10:04.951Z,14.47
2019-04-26T18:12:32.673Z,14.47
2019-04-26T18:15:00.092Z,14.35
2019-04-26T18:17:38.838Z,14.21
2019-04-26T18:20:05.217Z,14.21
2019-04-26T18:22:37.259Z,14.20
2019-04-26T18:25:10.860Z,14.17
2019-04-26T18:27:35.756Z,14.05
2019-04-26T18:30:06.590Z,13.99
2019-04-26T18:32:27.396Z,13.91
2019-04-26T18:34:54.883Z,13.94
2019-04-26T18:37:23.136Z,13.87
2019-04-26T18:39:49.991Z,13.78
2019-04-26T18:42:17.477Z,13.81
2019-04-26T18:44:48.059Z,13.75
2019-04-26T18:47:14.674Z,13.64
2019-04-26T18:49:40.107Z,13.62
2019-04-26T18:52:08.946Z,13.51
2019-04-26T18:54:40.874Z,13.42
2019-04-26T18:57:09.594Z,13.38
2019-04-26T18:59:35.993Z,13.39
2019-04-26T19:02:03.958Z,13.37
2019-04-26T19:04:30.974Z,13.38
2019-04-26T19:06:58.495Z,13.38
2019-04-26T19:09:25.957Z,13.33
2019-04-26T19:11:55.970Z,13.24
2019-04-26T19:14:26.635Z,13.22
2019-04-26T19:16:59.472Z,13.25
2019-04-26T19:19:32.560Z,13.20
2019-04-26T19:22:01.561Z,13.10
2019-04-26T19:24:27.931Z,13.00
2019-04-26T19:26:55.398Z,12.94
2019-04-26T19:29:32.710Z,12.84
2019-04-26T19:31:51.951Z,12.77
2019-04-26T19:34:17.971Z,12.69
2019-04-26T19:36:45.396Z,12.73
2019-04-26T19:39:12.854Z,12.77
2019-04-26T19:41:41.925Z,12.70
2019-04-26T19:44:07.815Z,12.65
2019-04-26T19:46:37.912Z,12.61
2019-04-26T19:49:12.488Z,12.60
2019-04-26T19:51:38.557Z,12.64
2019-04-26T19:54:15.930Z,12.56
2019-04-26T19:56:56.594Z,12.54
2019-04-26T19:59:23.426Z,12.54
2019-04-26T20:01:55.238Z,12.50
2019-04-26T20:04:17.665Z,12.51
2019-04-26T20:06:48.436Z,12.46
2019-04-26T20:09:13.779Z,12.42
2019-04-26T20:11:41.858Z,12.48
2019-04-26T20:14:07.773Z,12.55
2019-04-26T20:16:36.467Z,12.55
2019-04-26T20:19:02.726Z,12.55
2019-04-26T20:21:32.606Z,12.54
2019-04-26T20:23:57.740Z,12.49
2019-04-26T20:26:25.287Z,12.51
2019-04-26T20:28:52.822Z,12.58
2019-04-26T20:31:30.934Z,12.64
2019-04-26T20:33:58.422Z,12.69
2019-04-26T20:36:25.917Z,12.67
2019-04-26T20:38:53.384Z,12.69
2019-04-26T20:41:22.013Z,12.66
2019-04-26T20:44:02.286Z,12.55
2019-04-26T20:46:15.971Z,12.42
2019-04-26T20:48:43.391Z,12.38
2019-04-26T20:51:11.910Z,12.31
2019-04-26T20:53:41.354Z,12.39
2019-04-26T20:56:09.784Z,12.41
2019-04-26T20:58:37.495Z,12.40
2019-04-26T21:01:01.760Z,12.33
2019-04-26T21:03:29.220Z,12.31
2019-04-26T21:05:59.203Z,12.38
2019-04-26T21:08:26.720Z,12.40
2019-04-26T21:10:52.127Z,12.44
2019-04-26T21:13:19.319Z,12.43
2019-04-26T21:15:58.028Z,12.45
2019-04-26T21:18:14.284Z,12.38
2019-04-26T21:20:42.519Z,12.22
2019-04-26T21:23:09.295Z,12.19
2019-04-26T21:25:37.783Z,12.24
2019-04-26T21:28:23.965Z,12.29
2019-04-26T21:30:52.934Z,12.31
2019-04-26T21:33:38.993Z,12.40
2019-04-26T21:36:05.951Z,12.46
2019-04-26T21:38:37.611Z,12.54
2019-04-26T21:41:11.149Z,12.62
2019-04-26T21:43:34.690Z,12.66
2019-04-26T21:46:07.847Z,12.64
2019-04-26T21:48:27.975Z,12.64
2019-04-26T21:50:55.423Z,12.67
2019-04-26T21:53:23.993Z,12.69
2019-04-26T21:55:50.379Z,12.66
2019-04-26T21:58:17.887Z,12.64
2019-04-26T22:03:38.418Z,12.89
2019-04-26T22:06:05.936Z,12.79
2019-04-26T22:08:34.771Z,12.71
2019-04-26T22:11:01.432Z,12.68
2019-04-26T22:13:31.309Z,12.67
2019-04-26T22:16:00.191Z,12.70
2019-04-26T22:18:28.190Z,12.70
2019-04-26T22:20:55.651Z,12.62
2019-04-26T22:23:26.900Z,12.58
2019-04-26T22:25:55.970Z,12.56
2019-04-26T22:28:23.443Z,12.58
2019-04-26T22:30:49.368Z,12.65
2019-04-26T22:33:16.901Z,12.67
2019-04-26T22:35:44.337Z,12.64
2019-04-26T22:38:11.801Z,12.64
2019-04-26T22:40:39.394Z,12.64
2019-04-26T22:43:20.226Z,12.68
2019-04-26T22:45:53.877Z,12.71
2019-04-26T22:48:23.774Z,12.68
2019-04-26T22:50:53.700Z,12.44
2019-04-26T22:53:17.298Z,12.28
2019-04-26T22:55:44.755Z,12.22
2019-04-26T22:58:13.450Z,12.16
2019-04-26T23:00:39.679Z,12.11
2019-04-26T23:03:07.384Z,12.11
2019-04-26T23:05:36.610Z,12.10
2019-04-26T23:08:03.351Z,12.10
2019-04-26T23:10:32.062Z,12.19
2019-04-26T23:13:08.765Z,12.13
2019-04-26T23:15:47.077Z,12.10
2019-04-26T23:18:24.455Z,12.03
2019-04-26T23:20:56.746Z,11.96
2019-04-26T23:23:24.194Z,11.98
2019-04-26T23:25:51.675Z,11.99
2019-04-26T23:28:19.339Z,11.88
2019-04-26T23:30:46.820Z,11.87
2019-04-26T23:33:15.164Z,11.84
2019-04-26T23:35:45.747Z,11.81
2019-04-26T23:38:09.239Z,11.74
2019-04-26T23:40:36.691Z,11.72
2019-04-26T23:43:04.151Z,11.71
2019-04-26T23:45:33.176Z,11.69
2019-04-26T23:47:59.095Z,11.73
2019-04-26T23:50:29.511Z,11.75
2019-04-26T23:52:54.113Z,11.77
2019-04-26T23:55:21.585Z,11.81
2019-04-26T23:57:49.226Z,11.80
